Weather at Quatros Bocas Airport

Public forecast

Using degrees Celsius for public forecast. Weather courtesy of forecast.io.

Closest aviation weather report (METAR) to Quatros Bocas Airport

Closest report is Val de Cans/Júlio Cezar Ribeiro International Airport, 64.3 nm (119.1 km) NNW. Retrieved 2021/08/02 10:00 UTC (57 minutes ago):

SBBE 021000Z 07004KT CAVOK 23/22 Q1016

Closest aviation forecast (TAF) to Quatros Bocas Airport

Closest forecast is Val de Cans/Júlio Cezar Ribeiro International Airport, 64.3 nm (119.1 km) NNW. Retrieved 2021/08/02 06:00 UTC (5 hours ago):

TAF SBBE 020230Z 0206/0306 VRB03KT 8000 NSC TN23/0209Z TX31/0217Z BECMG 0211/0213 14010KT SCT030 FEW045TCU PROB40 0218/0221 5000 SHRA BECMG 0221/0223 07005KT SCT030 RMK PGU